createdAt,value
2022-09-22T00:02:14.604Z,98274.97
2022-09-22T00:07:19.092Z,98277.78
2022-09-22T00:12:23.065Z,98272.72
2022-09-22T00:17:27.840Z,98266.66
2022-09-22T00:22:31.470Z,98272.78
2022-09-22T00:27:35.368Z,98270.31
2022-09-22T00:32:40.937Z,98269.69
2022-09-22T00:37:44.468Z,98271.56
2022-09-22T00:42:47.929Z,98263.72
2022-09-22T00:47:53.313Z,98266.22
2022-09-22T00:53:02.193Z,98268.44
2022-09-22T00:58:10.378Z,98263.34
2022-09-22T01:03:19.419Z,98265.94
2022-09-22T01:08:24.938Z,98257.50
2022-09-22T01:13:37.672Z,98256.75
2022-09-22T01:18:53.931Z,98256.91
2022-09-22T01:24:44.784Z,98254.38
2022-09-22T01:30:19.877Z,98241.41
2022-09-22T01:35:31.493Z,98251.97
2022-09-22T01:40:43.236Z,98243.44
2022-09-22T01:45:49.573Z,98245.09
2022-09-22T01:50:57.966Z,98229.59
2022-09-22T01:56:06.518Z,98235.22
2022-09-22T02:01:15.171Z,98228.97
2022-09-22T02:06:23.478Z,98221.28
2022-09-22T02:11:27.094Z,98220.44
2022-09-22T02:16:33.092Z,98216.25
2022-09-22T02:21:37.124Z,98223.13
2022-09-22T02:26:40.607Z,98213.03
2022-09-22T02:31:46.258Z,98212.22
2022-09-22T02:37:02.208Z,98207.84
2022-09-22T02:42:23.059Z,98212.88
2022-09-22T02:47:33.646Z,98206.44
2022-09-22T02:52:37.928Z,98200.53
2022-09-22T02:57:41.694Z,98204.00
2022-09-22T03:02:46.604Z,98197.97
2022-09-22T03:07:50.336Z,98202.34
2022-09-22T03:13:15.056Z,98200.53
2022-09-22T03:18:18.943Z,98196.50
2022-09-22T03:23:22.479Z,98193.97
2022-09-22T03:28:26.101Z,98196.66
2022-09-22T03:33:31.239Z,98194.06
2022-09-22T03:38:34.895Z,98193.38
2022-09-22T03:43:38.372Z,98187.53
2022-09-22T03:48:45.355Z,98192.59
2022-09-22T03:53:49.237Z,98194.28
2022-09-22T03:58:52.755Z,98186.75
2022-09-22T04:03:57.584Z,98173.78
2022-09-22T04:09:01.722Z,98181.63
2022-09-22T04:14:05.587Z,98181.66
2022-09-22T04:19:11.376Z,98174.84
2022-09-22T04:24:15.503Z,98175.72
2022-09-22T04:29:19.658Z,98175.78
2022-09-22T04:34:25.991Z,98168.09
2022-09-22T04:39:30.121Z,98176.56
2022-09-22T04:44:35.431Z,98172.34
2022-09-22T04:49:40.662Z,98175.81
2022-09-22T04:54:44.177Z,98177.59
2022-09-22T04:59:47.602Z,98179.38
2022-09-22T05:04:52.555Z,98179.47
2022-09-22T05:09:56.312Z,98170.03
2022-09-22T05:15:00.503Z,98181.91
2022-09-22T05:20:06.104Z,98181.22
2022-09-22T05:25:12.082Z,98182.00
2022-09-22T05:30:16.637Z,98185.44
2022-09-22T05:35:23.546Z,98186.84
2022-09-22T05:40:27.187Z,98187.47
2022-09-22T05:45:30.889Z,98182.88
2022-09-22T05:50:35.828Z,98186.09
2022-09-22T05:55:41.023Z,98190.25
2022-09-22T06:00:44.932Z,98202.84
2022-09-22T06:05:49.890Z,98191.25
2022-09-22T06:10:53.507Z,98196.72
2022-09-22T06:15:57.057Z,98191.19
2022-09-22T06:21:03.587Z,98200.00
2022-09-22T06:26:07.657Z,98197.59
2022-09-22T06:31:12.125Z,98204.63
2022-09-22T06:36:24.080Z,98194.72
2022-09-22T06:41:27.876Z,98184.94
2022-09-22T06:46:39.044Z,98185.91
2022-09-22T06:51:43.875Z,98188.41
2022-09-22T06:56:47.464Z,98181.53
2022-09-22T07:01:51.189Z,98180.38
2022-09-22T07:06:56.199Z,98177.19
2022-09-22T07:12:00.493Z,98172.38
2022-09-22T07:17:04.031Z,98177.78
2022-09-22T07:22:09.243Z,98174.09
2022-09-22T07:27:14.722Z,98167.66
2022-09-22T07:32:18.497Z,98168.94
2022-09-22T07:37:24.291Z,98162.28
2022-09-22T07:42:27.785Z,98164.63
2022-09-22T07:47:48.015Z,98160.63
2022-09-22T07:52:53.757Z,98166.69
2022-09-22T07:57:58.918Z,98163.63
2022-09-22T08:03:04.278Z,98168.88
2022-09-22T08:08:09.650Z,98151.97
2022-09-22T08:13:13.777Z,98159.03
2022-09-22T08:18:17.243Z,98163.66
2022-09-22T08:23:22.874Z,98163.13
2022-09-22T08:28:26.311Z,98153.28
2022-09-22T08:33:32.338Z,98156.72
2022-09-22T08:38:38.943Z,98154.38
2022-09-22T08:43:55.396Z,98140.78
2022-09-22T08:49:22.756Z,98146.75
2022-09-22T08:54:31.625Z,98145.88
2022-09-22T08:59:44.813Z,98147.31
2022-09-22T09:05:09.212Z,98145.44
2022-09-22T09:10:29.044Z,98143.34
2022-09-22T09:15:47.288Z,98146.34
2022-09-22T09:20:53.198Z,98146.16
2022-09-22T09:26:00.436Z,98148.16
2022-09-22T09:31:10.682Z,98147.75
2022-09-22T09:36:18.561Z,98143.44
2022-09-22T09:41:26.100Z,98142.06
2022-09-22T09:46:47.477Z,98138.75
2022-09-22T09:51:53.928Z,98132.59
2022-09-22T09:57:09.968Z,98131.19
2022-09-22T10:02:15.591Z,98133.56
2022-09-22T10:07:21.519Z,98126.44
2022-09-22T10:12:29.400Z,98126.41
2022-09-22T10:17:41.146Z,98127.09
2022-09-22T10:22:45.562Z,98113.50
2022-09-22T10:28:01.213Z,98121.91
2022-09-22T10:33:14.540Z,98111.50
2022-09-22T10:38:21.691Z,98107.72
2022-09-22T10:43:38.278Z,98122.59
2022-09-22T10:48:48.174Z,98114.16
2022-09-22T10:54:10.247Z,98095.38
2022-09-22T10:59:32.662Z,98103.59
2022-09-22T11:04:53.118Z,98095.13
2022-09-22T11:10:19.436Z,98093.81
2022-09-22T11:16:06.647Z,98087.66
2022-09-22T11:21:23.738Z,98076.84
2022-09-22T11:26:46.297Z,98079.09
2022-09-22T11:32:01.756Z,98072.56
2022-09-22T11:37:27.731Z,98061.22
2022-09-22T11:42:40.702Z,98065.84
2022-09-22T11:48:04.050Z,98055.88
2022-09-22T11:53:40.318Z,98060.28
2022-09-22T11:58:46.288Z,98047.31
2022-09-22T12:03:56.644Z,98040.72
2022-09-22T12:09:04.064Z,98034.00
2022-09-22T12:14:14.702Z,98025.19
2022-09-22T12:19:30.241Z,98023.44
2022-09-22T12:24:34.800Z,98010.31
2022-09-22T12:29:39.583Z,98017.66
2022-09-22T12:34:45.718Z,98016.53
2022-09-22T12:39:50.842Z,98013.25
2022-09-22T12:45:00.842Z,98008.75
2022-09-22T12:50:08.286Z,98008.28
2022-09-22T12:55:20.558Z,98009.25
2022-09-22T13:00:32.872Z,98005.31
2022-09-22T13:05:46.856Z,97997.47
2022-09-22T13:11:02.363Z,97995.97
2022-09-22T13:16:38.097Z,97999.78
2022-09-22T13:21:42.528Z,97995.28
2022-09-22T13:26:47.545Z,97982.69
2022-09-22T13:31:56.049Z,97973.59
2022-09-22T13:37:02.780Z,97980.78
2022-09-22T13:42:09.728Z,97966.66
2022-09-22T13:47:19.124Z,97963.88
2022-09-22T13:52:27.035Z,97956.66
2022-09-22T13:57:32.980Z,97953.84
2022-09-22T14:02:45.402Z,97949.50
2022-09-22T14:08:10.572Z,97947.50
2022-09-22T14:13:40.558Z,97941.16
2022-09-22T14:18:49.324Z,97934.03
2022-09-22T14:23:53.389Z,97928.91
2022-09-22T14:28:59.225Z,97932.06
2022-09-22T14:34:07.231Z,97922.56
2022-09-22T14:39:19.258Z,97924.28
2022-09-22T14:44:27.409Z,97922.13
2022-09-22T14:49:40.790Z,97921.19
2022-09-22T14:54:45.677Z,97912.47
2022-09-22T15:00:13.561Z,97910.50
2022-09-22T15:05:29.713Z,97904.41
2022-09-22T15:10:35.236Z,97898.13
2022-09-22T15:15:46.670Z,97889.41
2022-09-22T15:20:53.371Z,97892.06
2022-09-22T15:25:57.532Z,97893.38
2022-09-22T15:31:00.945Z,97891.91
2022-09-22T15:36:13.882Z,97892.56
2022-09-22T15:41:17.419Z,97898.59
2022-09-22T15:46:31.625Z,97897.13
2022-09-22T15:51:37.592Z,97903.41
2022-09-22T15:56:41.946Z,97896.75
2022-09-22T16:01:46.280Z,97902.59
2022-09-22T16:06:55.338Z,97903.91
2022-09-22T16:11:59.685Z,97901.22
2022-09-22T16:17:03.171Z,97906.16
2022-09-22T16:22:07.849Z,97897.19
2022-09-22T16:27:12.203Z,97898.63
2022-09-22T16:32:16.657Z,97896.59
2022-09-22T16:37:21.979Z,97904.97
2022-09-22T16:42:25.486Z,97908.63
2022-09-22T16:47:29.659Z,97903.59
2022-09-22T16:52:34.518Z,97902.28
2022-09-22T16:57:38.084Z,97903.47
2022-09-22T17:02:44.683Z,97901.19
2022-09-22T17:07:54.116Z,97907.31
2022-09-22T17:12:59.900Z,97906.28
2022-09-22T17:18:05.452Z,97896.25
2022-09-22T17:23:12.901Z,97911.09
2022-09-22T17:28:17.871Z,97904.59
2022-09-22T17:33:21.812Z,97904.13
2022-09-22T17:43:56.481Z,97913.34
2022-09-22T17:49:36.040Z,97911.28
2022-09-22T17:54:59.733Z,97921.25
2022-09-22T18:00:03.501Z,97918.91
2022-09-22T18:05:11.105Z,97918.78
2022-09-22T18:10:19.695Z,97914.69
2022-09-22T18:15:24.378Z,97918.66
2022-09-22T18:20:28.016Z,97921.72
2022-09-22T18:25:34.282Z,97923.31
2022-09-22T18:30:40.366Z,97919.03
2022-09-22T18:35:46.223Z,97919.00
2022-09-22T18:40:54.321Z,97924.22
2022-09-22T18:45:59.628Z,97928.56
2022-09-22T18:51:06.416Z,97942.06
2022-09-22T18:56:19.528Z,97936.44
2022-09-22T19:01:25.011Z,97938.59
2022-09-22T19:06:52.325Z,97950.38
2022-09-22T19:11:59.342Z,97946.81
2022-09-22T19:17:05.804Z,97953.59
2022-09-22T19:22:11.265Z,97951.53
2022-09-22T19:27:19.312Z,97950.84
2022-09-22T19:32:28.749Z,97950.47
2022-09-22T19:37:33.199Z,97948.91
2022-09-22T19:42:40.450Z,97942.97
2022-09-22T19:47:45.052Z,97947.50
2022-09-22T19:52:48.944Z,97949.72
2022-09-22T19:57:57.353Z,97943.59
2022-09-22T20:03:01.928Z,97951.06
2022-09-22T20:08:08.071Z,97944.47
2022-09-22T20:13:27.197Z,97940.69
2022-09-22T20:18:40.580Z,97938.47
2022-09-22T20:23:47.968Z,97942.41
2022-09-22T20:28:54.336Z,97932.38
2022-09-22T20:33:57.972Z,97936.97
2022-09-22T20:39:02.082Z,97935.19
2022-09-22T20:44:07.531Z,97918.81
2022-09-22T20:49:13.951Z,97925.34
2022-09-22T20:54:18.371Z,97924.56
2022-09-22T20:59:23.430Z,97916.34
2022-09-22T21:04:27.029Z,97926.44
2022-09-22T21:09:48.100Z,97922.28
2022-09-22T21:14:53.269Z,97918.97
2022-09-22T21:19:57.960Z,97917.53
2022-09-22T21:25:03.157Z,97917.19
2022-09-22T21:30:09.506Z,97915.41
2022-09-22T21:35:16.848Z,97910.25
2022-09-22T21:40:20.666Z,97909.13
2022-09-22T21:45:25.849Z,97910.31
2022-09-22T21:50:29.303Z,97905.78
2022-09-22T21:55:32.829Z,97900.13
2022-09-22T22:00:51.798Z,97903.56
2022-09-22T22:06:01.045Z,97898.47
2022-09-22T22:11:07.178Z,97893.56
2022-09-22T22:16:13.639Z,97888.28
2022-09-22T22:21:19.350Z,97886.63
2022-09-22T22:26:24.988Z,97888.28
2022-09-22T22:31:29.806Z,97883.38
2022-09-22T22:36:33.892Z,97888.28
2022-09-22T22:41:38.002Z,97888.66
2022-09-22T22:46:42.924Z,97871.81
2022-09-22T22:51:49.873Z,97869.28
2022-09-22T22:56:53.392Z,97869.91
2022-09-22T23:01:58.201Z,97877.09
2022-09-22T23:07:01.635Z,97864.00
2022-09-22T23:12:05.819Z,97868.22
2022-09-22T23:17:10.885Z,97867.84
2022-09-22T23:22:14.314Z,97851.72
2022-09-22T23:27:17.832Z,97849.19
2022-09-22T23:32:23.686Z,97845.94
2022-09-22T23:37:27.124Z,97847.13
2022-09-22T23:42:30.534Z,97837.16
2022-09-22T23:47:36.516Z,97837.63
2022-09-22T23:52:39.968Z,97832.59
2022-09-22T23:57:43.377Z,97833.84
